createdAt,value
2022-12-26T00:00:29.361Z,35.25
2022-12-26T00:05:38.167Z,30.00
2022-12-26T00:10:42.739Z,31.75
2022-12-26T00:15:47.410Z,29.50
2022-12-26T00:20:52.268Z,32.00
2022-12-26T00:25:56.811Z,29.75
2022-12-26T00:31:04.759Z,27.00
2022-12-26T00:36:11.118Z,40.75
2022-12-26T00:41:16.647Z,36.00
2022-12-26T00:46:21.837Z,40.00
2022-12-26T00:51:26.375Z,37.50
2022-12-26T00:56:30.988Z,31.75
2022-12-26T01:01:35.795Z,34.75
2022-12-26T01:06:40.668Z,34.25
2022-12-26T01:11:45.360Z,26.50
2022-12-26T01:16:50.043Z,27.50
2022-12-26T01:21:54.613Z,30.25
2022-12-26T01:26:59.267Z,25.50
2022-12-26T01:32:03.832Z,25.50
2022-12-26T01:37:09.004Z,21.00
2022-12-26T01:42:14.868Z,21.50
2022-12-26T01:47:20.044Z,19.75
2022-12-26T01:52:32.841Z,21.00
2022-12-26T01:57:40.276Z,17.75
2022-12-26T02:03:03.681Z,17.75
2022-12-26T02:08:11.722Z,17.00
2022-12-26T02:13:16.329Z,17.50
2022-12-26T02:18:20.832Z,20.50
2022-12-26T02:23:48.323Z,15.50
2022-12-26T02:28:52.786Z,14.50
2022-12-26T02:33:57.305Z,16.25
2022-12-26T02:39:45.664Z,17.00
2022-12-26T02:45:00.729Z,14.25
2022-12-26T02:50:33.643Z,10.75
2022-12-26T02:55:59.161Z,13.25
2022-12-26T03:01:43.825Z,8.00
2022-12-26T03:07:09.691Z,10.50
2022-12-26T03:12:38.030Z,11.00
2022-12-26T03:17:48.935Z,15.75
2022-12-26T03:22:56.288Z,10.25
2022-12-26T03:28:00.511Z,8.75
2022-12-26T03:33:04.671Z,11.50
2022-12-26T03:38:15.851Z,11.00
2022-12-26T03:43:40.889Z,10.50
2022-12-26T03:49:09.257Z,8.75
2022-12-26T03:54:33.411Z,7.25
2022-12-26T04:00:05.499Z,8.75
2022-12-26T04:05:34.966Z,7.75
2022-12-26T04:10:59.948Z,6.25
2022-12-26T04:16:30.334Z,9.50
2022-12-26T04:22:12.641Z,7.75
2022-12-26T04:27:37.909Z,9.00
2022-12-26T04:33:06.240Z,5.50
2022-12-26T04:38:30.129Z,6.75
2022-12-26T04:43:53.304Z,8.00
2022-12-26T04:49:16.242Z,8.00
2022-12-26T04:54:21.004Z,7.75
2022-12-26T04:59:26.364Z,6.50
2022-12-26T05:04:51.152Z,4.25
2022-12-26T05:09:56.362Z,6.75
2022-12-26T05:15:00.977Z,7.00
2022-12-26T05:20:23.822Z,8.75
2022-12-26T05:25:48.241Z,4.25
2022-12-26T05:30:53.164Z,3.75
2022-12-26T05:35:57.994Z,6.00
2022-12-26T05:41:02.773Z,7.25
2022-12-26T05:46:07.824Z,5.75
2022-12-26T05:51:13.953Z,6.00
2022-12-26T05:56:20.339Z,5.50
2022-12-26T06:01:25.612Z,4.75
2022-12-26T06:06:30.601Z,5.00
2022-12-26T06:11:34.892Z,6.00
2022-12-26T06:16:39.718Z,6.00
2022-12-26T06:21:44.514Z,5.25
2022-12-26T06:26:50.014Z,5.00
2022-12-26T06:31:55.311Z,5.50
2022-12-26T06:37:00.369Z,4.25
2022-12-26T06:42:06.699Z,6.75
2022-12-26T06:47:11.780Z,9.00
2022-12-26T06:52:19.182Z,4.00
2022-12-26T06:57:24.372Z,4.25
2022-12-26T07:02:29.269Z,4.75
2022-12-26T07:07:35.236Z,4.00
2022-12-26T07:12:40.511Z,5.75
2022-12-26T07:17:45.281Z,5.50
2022-12-26T07:22:50.177Z,6.00
2022-12-26T07:27:55.443Z,5.25
2022-12-26T07:33:00.300Z,5.00
2022-12-26T07:38:05.759Z,3.75
2022-12-26T07:43:10.514Z,6.25
2022-12-26T07:48:14.814Z,7.00
2022-12-26T07:53:19.723Z,7.25
2022-12-26T07:58:24.578Z,4.50
2022-12-26T08:03:29.460Z,4.50
2022-12-26T08:08:34.526Z,7.50
2022-12-26T08:13:39.025Z,6.25
2022-12-26T08:18:44.032Z,6.50
2022-12-26T08:23:49.832Z,6.25
2022-12-26T08:28:54.623Z,6.25
2022-12-26T08:34:00.924Z,7.75
2022-12-26T08:39:06.446Z,6.25
2022-12-26T08:44:28.196Z,6.00
2022-12-26T08:49:33.059Z,8.00
2022-12-26T08:54:37.933Z,11.00
2022-12-26T08:59:42.807Z,17.75
2022-12-26T09:04:47.707Z,25.50
2022-12-26T09:09:52.534Z,25.00
2022-12-26T09:14:57.774Z,21.00
2022-12-26T09:20:02.587Z,24.75
2022-12-26T09:25:08.106Z,28.00
2022-12-26T09:30:13.990Z,22.75
2022-12-26T09:35:18.717Z,25.50
2022-12-26T09:40:25.513Z,21.25
2022-12-26T09:45:39.050Z,22.50
2022-12-26T09:50:45.029Z,21.50
2022-12-26T09:55:56.831Z,22.50
2022-12-26T10:01:12.718Z,23.25
2022-12-26T10:06:27.566Z,28.25
2022-12-26T10:11:53.587Z,25.50
2022-12-26T10:16:57.736Z,24.00
2022-12-26T10:22:01.964Z,36.25
2022-12-26T10:27:14.080Z,35.75
2022-12-26T10:32:32.190Z,35.00
2022-12-26T10:37:45.692Z,35.25
2022-12-26T10:42:57.712Z,40.00
2022-12-26T10:48:03.314Z,37.00
2022-12-26T10:53:09.427Z,35.75
2022-12-26T10:58:14.080Z,34.50
2022-12-26T11:03:20.425Z,34.00
2022-12-26T11:08:31.765Z,33.00
2022-12-26T11:13:40.439Z,32.75
2022-12-26T11:18:51.762Z,34.50
2022-12-26T11:24:17.552Z,31.50
2022-12-26T11:29:22.228Z,30.25
2022-12-26T11:34:31.605Z,28.00
2022-12-26T11:39:39.057Z,32.00
2022-12-26T11:44:45.700Z,29.25
2022-12-26T11:49:51.074Z,29.50
2022-12-26T11:54:55.499Z,24.75
2022-12-26T12:00:20.838Z,28.00
2022-12-26T12:05:34.202Z,23.75
2022-12-26T12:10:50.200Z,24.50
2022-12-26T12:15:55.433Z,23.00
2022-12-26T12:21:00.918Z,17.75
2022-12-26T12:26:06.372Z,22.50
2022-12-26T12:31:36.492Z,18.00
2022-12-26T12:37:00.120Z,22.50
2022-12-26T12:42:23.448Z,24.00
2022-12-26T12:47:38.944Z,29.25
2022-12-26T12:52:43.797Z,28.00
2022-12-26T12:58:01.887Z,24.00
2022-12-26T13:03:13.146Z,20.75
2022-12-26T13:08:20.643Z,19.50
2022-12-26T13:13:32.943Z,19.75
2022-12-26T13:18:40.273Z,19.25
2022-12-26T13:24:02.503Z,20.50
2022-12-26T13:29:06.797Z,22.25
2022-12-26T13:34:13.983Z,22.00
2022-12-26T13:39:27.676Z,19.25
2022-12-26T13:44:34.375Z,16.75
2022-12-26T13:49:41.316Z,21.75
2022-12-26T13:54:49.287Z,19.50
2022-12-26T14:00:12.217Z,15.25
2022-12-26T14:05:17.358Z,15.00
2022-12-26T14:10:42.534Z,16.00
2022-12-26T14:16:19.751Z,17.75
2022-12-26T14:21:39.571Z,15.25
2022-12-26T14:26:53.301Z,15.50
2022-12-26T14:32:03.926Z,16.00
2022-12-26T14:37:10.169Z,15.25
2022-12-26T14:42:36.406Z,17.50
2022-12-26T14:47:51.558Z,12.75
2022-12-26T14:52:56.523Z,12.25
2022-12-26T14:58:21.387Z,16.25
2022-12-26T15:03:43.995Z,11.75
2022-12-26T15:09:07.522Z,13.25
2022-12-26T15:14:21.452Z,11.75
2022-12-26T15:19:44.943Z,20.00
2022-12-26T15:25:18.827Z,16.75
2022-12-26T15:30:42.975Z,18.00
2022-12-26T15:36:06.306Z,31.00
2022-12-26T15:41:21.745Z,18.00
2022-12-26T15:46:33.947Z,21.50
2022-12-26T15:51:56.772Z,15.75
2022-12-26T15:57:32.509Z,15.25
2022-12-26T16:02:40.215Z,14.50
2022-12-26T16:07:54.157Z,14.25
2022-12-26T16:13:08.037Z,11.50
2022-12-26T16:18:16.363Z,14.00
2022-12-26T16:23:26.565Z,18.50
2022-12-26T16:28:37.365Z,16.50
2022-12-26T16:33:43.681Z,15.75
2022-12-26T16:38:48.012Z,16.25
2022-12-26T16:43:54.234Z,17.75
2022-12-26T16:49:00.449Z,17.00
2022-12-26T16:54:20.011Z,19.50
2022-12-26T16:59:25.529Z,23.75
2022-12-26T17:04:30.786Z,19.50
2022-12-26T17:09:46.031Z,22.25
2022-12-26T17:14:51.723Z,18.50
2022-12-26T17:19:57.143Z,20.00
2022-12-26T17:25:19.861Z,17.50
2022-12-26T17:30:33.818Z,17.00
2022-12-26T17:36:32.921Z,15.00
2022-12-26T17:41:06.625Z,26.25
2022-12-26T17:46:15.154Z,15.75
2022-12-26T17:51:20.537Z,19.75
2022-12-26T17:56:28.386Z,18.25
2022-12-26T18:01:32.595Z,21.25
2022-12-26T18:06:36.875Z,16.50
2022-12-26T18:11:42.507Z,18.00
2022-12-26T18:16:46.932Z,14.25
2022-12-26T18:21:50.928Z,18.25
2022-12-26T18:26:55.027Z,16.25
2022-12-26T18:31:59.922Z,13.25
2022-12-26T18:37:04.006Z,13.25
2022-12-26T18:42:08.298Z,13.75
2022-12-26T18:47:16.361Z,11.50
2022-12-26T18:52:20.465Z,10.75
2022-12-26T18:57:24.532Z,13.00
2022-12-26T19:02:29.148Z,10.75
2022-12-26T19:07:33.309Z,9.75
2022-12-26T19:12:37.343Z,8.25
2022-12-26T19:17:43.277Z,10.00
2022-12-26T19:22:47.940Z,9.50
2022-12-26T19:27:52.021Z,11.25
2022-12-26T19:32:56.077Z,10.25
2022-12-26T19:38:00.672Z,7.75
2022-12-26T19:43:04.800Z,6.75
2022-12-26T19:48:08.900Z,6.75
2022-12-26T19:53:12.974Z,7.75
2022-12-26T19:58:17.095Z,4.50
2022-12-26T20:03:21.287Z,6.00
2022-12-26T20:08:25.466Z,5.00
2022-12-26T20:13:29.529Z,5.75
2022-12-26T20:18:33.636Z,3.50
2022-12-26T20:23:37.955Z,5.00
2022-12-26T20:28:42.338Z,6.75
2022-12-26T20:33:47.440Z,4.25
2022-12-26T20:38:52.505Z,3.75
2022-12-26T20:43:57.104Z,7.00
2022-12-26T20:49:03.178Z,5.50
2022-12-26T20:54:08.291Z,5.00
2022-12-26T20:59:12.432Z,3.50
2022-12-26T21:04:21.920Z,2.00
2022-12-26T21:09:25.989Z,2.25
2022-12-26T21:14:30.103Z,2.75
2022-12-26T21:19:34.164Z,3.00
2022-12-26T21:24:38.211Z,1.00
2022-12-26T21:29:42.561Z,3.50
2022-12-26T21:34:46.688Z,4.50
2022-12-26T21:39:51.853Z,3.25
2022-12-26T21:44:55.925Z,3.00
2022-12-26T21:50:00.132Z,3.75
2022-12-26T21:55:22.545Z,3.00
2022-12-26T22:00:26.616Z,5.00
2022-12-26T22:05:31.404Z,4.50
2022-12-26T22:10:54.254Z,3.00
2022-12-26T22:16:10.138Z,2.00
2022-12-26T22:21:15.677Z,2.25
2022-12-26T22:26:21.156Z,4.25
2022-12-26T22:31:33.562Z,3.75
2022-12-26T22:36:38.078Z,2.50
2022-12-26T22:41:42.482Z,8.75
2022-12-26T22:46:48.581Z,3.75
2022-12-26T22:51:53.143Z,6.50
2022-12-26T22:56:57.661Z,6.75
2022-12-26T23:02:02.131Z,4.25
2022-12-26T23:07:06.775Z,5.00
2022-12-26T23:12:30.417Z,4.25
2022-12-26T23:17:55.495Z,5.00
2022-12-26T23:23:00.388Z,7.25
2022-12-26T23:28:22.805Z,3.75
2022-12-26T23:33:27.296Z,3.25
2022-12-26T23:38:31.729Z,10.50
2022-12-26T23:43:36.137Z,7.50
2022-12-26T23:48:40.609Z,9.75
2022-12-26T23:53:45.188Z,3.75
2022-12-26T23:58:49.739Z,8.50
